createdAt,value
2023-07-12T06:41:00.361Z,21.23
2023-07-12T06:43:11.650Z,21.49
2023-07-12T06:45:39.128Z,21.60
2023-07-12T06:47:54.159Z,21.46
2023-07-12T06:50:09.497Z,21.50
2023-07-12T06:52:37.879Z,21.68
2023-07-12T06:53:39.358Z,21.78
2023-07-12T06:56:00.510Z,21.90
2023-07-12T06:58:20.898Z,21.96
2023-07-12T07:00:42.071Z,21.78
2023-07-12T07:03:04.683Z,21.89
2023-07-12T07:05:27.123Z,21.99
2023-07-12T07:07:51.443Z,22.22
2023-07-12T07:10:10.848Z,22.26
2023-07-12T07:12:31.762Z,22.24
2023-07-12T07:14:57.577Z,22.30
2023-07-12T07:17:18.302Z,22.63
2023-07-12T07:19:55.777Z,22.90
2023-07-12T07:22:34.246Z,23.02
2023-07-12T07:25:16.037Z,22.80
2023-07-12T07:27:51.264Z,23.08
2023-07-12T07:28:52.804Z,22.98
2023-07-12T07:31:15.991Z,22.99
2023-07-12T07:33:38.778Z,22.85
2023-07-12T07:35:56.597Z,22.92
2023-07-12T07:38:29.016Z,23.21
2023-07-12T07:40:52.976Z,23.14
2023-07-12T07:43:14.360Z,23.19
2023-07-12T07:45:31.950Z,23.39
2023-07-12T07:47:52.628Z,23.33
2023-07-12T07:50:12.551Z,23.43
2023-07-12T07:52:30.598Z,23.68
2023-07-12T07:54:49.565Z,23.69
2023-07-12T07:57:11.094Z,23.91
2023-07-12T07:59:28.410Z,23.89
2023-07-12T08:01:50.603Z,24.09
2023-07-12T08:04:09.945Z,24.22
2023-07-12T08:06:29.675Z,24.70
2023-07-12T08:09:02.883Z,24.92
2023-07-12T08:11:37.003Z,25.20
2023-07-12T08:14:01.268Z,24.83
2023-07-12T08:16:28.599Z,24.92
2023-07-12T08:18:51.540Z,24.77
2023-07-12T08:21:18.002Z,24.67
2023-07-12T08:23:48.853Z,24.61
2023-07-12T08:24:50.447Z,24.61
2023-07-12T08:25:53.677Z,24.82
2023-07-12T08:28:30.845Z,25.06
2023-07-12T08:29:32.258Z,25.06
2023-07-12T08:30:33.828Z,25.10
2023-07-12T08:31:35.292Z,25.00
2023-07-12T08:38:19.783Z,23.99
2023-07-12T08:40:47.352Z,23.97
2023-07-12T08:41:48.793Z,24.04
2023-07-12T08:42:51.368Z,24.33
2023-07-12T08:43:53.558Z,24.56
2023-07-12T08:46:44.450Z,24.41
2023-07-12T08:47:47.400Z,24.81
2023-07-12T08:48:59.911Z,24.87
2023-07-12T08:50:01.488Z,24.87
2023-07-12T08:51:14.705Z,24.76
2023-07-12T08:52:23.791Z,25.17
2023-07-12T08:53:30.813Z,25.43
2023-07-12T08:54:35.739Z,25.30
2023-07-12T08:55:38.877Z,25.34
2023-07-12T08:56:40.249Z,25.23
2023-07-12T08:57:42.756Z,25.36
2023-07-12T08:58:51.631Z,25.24
2023-07-12T09:00:06.827Z,24.95
2023-07-12T09:01:11.370Z,24.84
2023-07-12T09:02:24.065Z,24.71
2023-07-12T09:03:25.474Z,24.81
2023-07-12T09:04:32.338Z,24.96
2023-07-12T09:05:34.126Z,24.87
2023-07-12T09:06:36.690Z,24.72
2023-07-12T09:07:39.037Z,24.56
2023-07-12T09:08:44.954Z,24.91
2023-07-12T09:09:49.453Z,25.11
2023-07-12T09:10:57.195Z,25.31
2023-07-12T09:11:59.167Z,25.39
2023-07-12T09:13:02.031Z,25.17
2023-07-12T09:14:03.797Z,25.10
2023-07-12T09:15:12.448Z,25.02
2023-07-12T09:16:23.712Z,24.76
2023-07-12T09:17:28.136Z,24.79
2023-07-12T09:18:35.253Z,25.01
2023-07-12T09:19:39.849Z,25.33
2023-07-12T09:20:50.200Z,25.03
2023-07-12T09:21:56.530Z,25.12
2023-07-12T09:22:59.870Z,25.10
2023-07-12T09:24:08.025Z,25.03
2023-07-12T09:25:20.261Z,25.09
2023-07-12T09:26:30.594Z,24.98
2023-07-12T09:27:32.168Z,25.25
2023-07-12T09:28:39.989Z,25.21
2023-07-12T09:29:42.065Z,25.27
2023-07-12T09:30:44.320Z,25.07
2023-07-12T09:31:46.882Z,25.65
2023-07-12T09:32:50.607Z,25.96
2023-07-12T09:34:00.467Z,25.92
2023-07-12T09:35:28.469Z,26.69
2023-07-12T09:36:30.193Z,26.70
2023-07-12T09:37:38.037Z,26.76
2023-07-12T09:38:39.506Z,27.08
2023-07-12T09:39:40.960Z,26.80
2023-07-12T09:40:45.106Z,26.63
2023-07-12T09:41:51.403Z,26.89
2023-07-12T09:42:58.078Z,27.03
2023-07-12T09:44:01.221Z,27.30
2023-07-12T09:45:05.825Z,26.72
2023-07-12T09:46:49.856Z,26.58
2023-07-12T09:48:10.030Z,25.97
2023-07-12T09:49:18.478Z,26.24
2023-07-12T09:50:27.315Z,26.87
2023-07-12T09:51:52.888Z,26.96
2023-07-12T09:53:06.979Z,26.50
2023-07-12T09:54:27.374Z,26.63
2023-07-12T09:55:40.096Z,26.36
2023-07-12T09:56:56.654Z,26.79
2023-07-12T09:58:07.327Z,26.50
2023-07-12T09:59:30.378Z,26.67
2023-07-12T10:00:49.728Z,26.80
2023-07-12T10:01:55.723Z,27.33
2023-07-12T10:03:03.216Z,26.84
2023-07-12T10:04:33.774Z,26.60
2023-07-12T10:05:36.859Z,26.95
2023-07-12T10:06:47.550Z,27.44
2023-07-12T10:07:53.992Z,27.85
2023-07-12T10:09:17.690Z,27.59
2023-07-12T10:10:25.036Z,27.38
2023-07-12T10:11:39.521Z,27.44
2023-07-12T10:12:50.472Z,27.37
2023-07-12T10:13:57.524Z,27.27
2023-07-12T10:14:59.653Z,27.31
2023-07-12T10:16:03.766Z,26.91
2023-07-12T10:17:11.084Z,26.82
2023-07-12T10:18:27.566Z,26.73
2023-07-12T10:19:38.732Z,26.64
2023-07-12T10:20:40.779Z,26.52
2023-07-12T10:21:42.473Z,26.92
2023-07-12T10:22:46.367Z,26.80
2023-07-12T10:23:58.030Z,26.96
2023-07-12T10:25:01.186Z,27.28
2023-07-12T10:26:05.748Z,27.36
2023-07-12T10:27:38.944Z,27.17
2023-07-12T10:29:10.311Z,27.45
2023-07-12T10:30:18.673Z,27.85
2023-07-12T10:31:47.375Z,28.38
2023-07-12T10:32:54.405Z,28.23
2023-07-12T10:34:08.457Z,28.07
2023-07-12T10:35:31.897Z,27.76
2023-07-12T10:36:36.005Z,27.29
2023-07-12T10:37:49.690Z,27.12
2023-07-12T10:38:51.372Z,27.02
2023-07-12T10:39:52.894Z,27.63
2023-07-12T10:41:00.206Z,27.58
2023-07-12T10:42:18.968Z,27.52
2023-07-12T10:43:41.808Z,27.18
2023-07-12T10:44:50.680Z,27.24
2023-07-12T10:45:56.951Z,27.24
2023-07-12T10:47:03.032Z,27.63
2023-07-12T10:48:06.085Z,27.47
2023-07-12T10:49:17.545Z,27.86
2023-07-12T10:50:35.007Z,28.41
2023-07-12T10:51:39.108Z,28.39
2023-07-12T10:53:17.945Z,28.91
2023-07-12T10:54:30.187Z,28.43
2023-07-12T10:56:03.793Z,27.67
2023-07-12T10:57:08.254Z,27.10
2023-07-12T10:58:28.086Z,26.98
2023-07-12T10:59:31.688Z,27.19
2023-07-12T11:00:49.784Z,27.27
2023-07-12T11:01:55.976Z,26.92
2023-07-12T11:03:12.702Z,26.79
2023-07-12T11:04:18.040Z,26.89
2023-07-12T11:05:38.782Z,27.62
2023-07-12T11:07:25.371Z,27.82
2023-07-12T11:08:32.638Z,27.41
2023-07-12T11:09:46.032Z,27.46
2023-07-12T11:10:47.967Z,27.65
2023-07-12T11:11:58.976Z,27.67
2023-07-12T11:13:13.453Z,27.62
2023-07-12T11:14:24.590Z,28.17
2023-07-12T11:15:28.492Z,27.65
2023-07-12T11:16:30.221Z,27.31
2023-07-12T11:17:48.490Z,26.86
2023-07-12T11:18:53.617Z,26.55
2023-07-12T11:20:05.649Z,26.62
2023-07-12T11:21:26.002Z,27.43
2023-07-12T11:22:53.795Z,28.51
2023-07-12T11:23:55.327Z,28.82
2023-07-12T11:25:23.798Z,29.54
2023-07-12T11:26:31.672Z,29.51
2023-07-12T11:28:02.413Z,29.48
2023-07-12T11:29:33.923Z,29.59
2023-07-12T11:30:35.376Z,29.94
2023-07-12T11:31:42.593Z,29.53
2023-07-12T11:32:48.089Z,29.24
2023-07-12T11:34:15.902Z,28.95
2023-07-12T11:35:26.118Z,28.71
2023-07-12T11:36:32.505Z,28.54
2023-07-12T11:37:41.576Z,29.15
2023-07-12T11:38:44.399Z,28.74
2023-07-12T11:39:48.059Z,28.96
2023-07-12T11:40:53.750Z,29.32
2023-07-12T11:42:01.826Z,29.69
2023-07-12T11:43:25.001Z,29.28
2023-07-12T11:44:27.046Z,29.44
2023-07-12T11:45:28.636Z,29.44
2023-07-12T11:46:35.051Z,28.83
2023-07-12T11:47:41.968Z,29.07
2023-07-12T11:48:50.837Z,29.39
2023-07-12T11:49:58.726Z,29.30
2023-07-12T11:51:05.099Z,29.50
2023-07-12T11:52:16.838Z,29.74
2023-07-12T11:53:19.546Z,30.03
2023-07-12T11:54:34.506Z,30.67
2023-07-12T11:55:36.393Z,30.54
2023-07-12T11:56:41.819Z,30.71
2023-07-12T11:57:45.275Z,30.48
2023-07-12T11:58:47.129Z,30.56
2023-07-12T11:59:51.148Z,30.42
2023-07-12T12:00:56.259Z,30.04
2023-07-12T12:01:57.692Z,30.27
2023-07-12T12:03:00.435Z,29.65
2023-07-12T12:04:06.657Z,29.79
2023-07-12T12:05:22.511Z,29.64
2023-07-12T12:06:24.208Z,30.40
2023-07-12T12:07:40.433Z,30.18
2023-07-12T12:08:49.266Z,29.44
2023-07-12T12:09:52.095Z,28.94
2023-07-12T12:10:55.295Z,28.78
2023-07-12T12:11:59.058Z,29.04
2023-07-12T12:13:00.880Z,28.98
2023-07-12T12:14:02.961Z,29.45
2023-07-12T12:15:18.406Z,29.53
2023-07-12T12:16:23.650Z,28.88
2023-07-12T12:17:37.582Z,29.00
2023-07-12T12:18:49.972Z,29.27
2023-07-12T12:20:03.373Z,28.84
2023-07-12T12:21:15.706Z,29.25
2023-07-12T12:22:28.816Z,29.45
2023-07-12T12:23:42.692Z,29.68
2023-07-12T12:24:48.872Z,29.45
2023-07-12T12:25:52.412Z,29.14
2023-07-12T12:26:53.808Z,28.92
2023-07-12T12:27:55.285Z,29.04
2023-07-12T12:29:00.069Z,28.82
2023-07-12T12:30:23.950Z,28.33
2023-07-12T12:31:28.977Z,28.33
2023-07-12T12:32:30.467Z,28.63
2023-07-12T12:33:31.964Z,28.73
2023-07-12T12:34:39.607Z,28.72
2023-07-12T12:35:56.612Z,29.36
2023-07-12T12:37:08.708Z,29.47
2023-07-12T12:38:26.274Z,29.79
2023-07-12T12:39:28.677Z,30.11
2023-07-12T12:40:30.106Z,30.42
2023-07-12T12:41:46.925Z,30.37
2023-07-12T12:43:06.699Z,30.31
2023-07-12T12:44:10.330Z,30.41
2023-07-12T12:45:12.041Z,30.23
2023-07-12T12:46:21.107Z,30.67
2023-07-12T12:47:29.825Z,29.97
2023-07-12T12:48:58.042Z,29.58
2023-07-12T12:51:02.771Z,30.22
2023-07-12T12:53:44.785Z,30.04
2023-07-12T12:54:59.578Z,30.05
2023-07-12T12:58:23.036Z,30.68
2023-07-12T13:02:12.628Z,31.12
2023-07-12T13:06:25.561Z,29.75
2023-07-12T13:07:49.483Z,29.77
2023-07-12T13:16:21.479Z,29.98
2023-07-12T13:18:12.529Z,30.23
2023-07-12T13:20:31.217Z,30.06
2023-07-12T13:21:34.593Z,30.53
2023-07-12T13:22:36.597Z,30.82
2023-07-12T13:23:38.633Z,30.40
2023-07-12T13:24:41.110Z,29.26
2023-07-12T13:25:45.231Z,29.25
2023-07-12T13:26:46.665Z,30.05
2023-07-12T13:27:55.051Z,30.80
2023-07-12T13:28:56.476Z,30.45
2023-07-12T13:29:58.118Z,30.30
2023-07-12T13:30:59.537Z,30.31
2023-07-12T13:32:01.165Z,30.17
2023-07-12T13:33:02.630Z,30.51
2023-07-12T13:36:26.752Z,30.55
2023-07-12T13:39:41.554Z,30.13
2023-07-12T13:40:06.152Z,30.01
2023-07-12T13:42:42.635Z,30.12
2023-07-12T13:45:47.761Z,30.83
2023-07-12T13:46:49.432Z,31.03
2023-07-12T13:47:51.113Z,31.06
2023-07-12T13:48:52.658Z,30.72
2023-07-12T13:49:55.978Z,30.30
2023-07-12T13:50:57.567Z,30.54
2023-07-12T13:51:58.981Z,31.02
2023-07-12T13:53:00.391Z,30.91
2023-07-12T13:54:01.798Z,30.61
2023-07-12T13:55:05.115Z,30.73
2023-07-12T13:56:45.710Z,31.27
2023-07-12T13:57:36.747Z,31.15
2023-07-12T13:59:50.004Z,30.55
2023-07-12T14:01:22.741Z,30.53
2023-07-12T14:03:38.231Z,30.70
2023-07-12T14:05:58.003Z,30.42
2023-07-12T14:07:02.101Z,30.07
2023-07-12T14:09:20.995Z,30.40
2023-07-12T14:10:26.275Z,30.63
2023-07-12T14:11:32.486Z,30.19
2023-07-12T14:12:34.177Z,29.64
2023-07-12T14:13:35.669Z,29.64
2023-07-12T14:14:37.066Z,29.87
2023-07-12T14:15:38.533Z,30.03
2023-07-12T14:16:40.008Z,30.05
2023-07-12T14:17:42.044Z,29.74
2023-07-12T14:18:43.655Z,30.10
2023-07-12T14:19:47.379Z,30.11
2023-07-12T14:20:52.089Z,29.77
2023-07-12T14:21:54.250Z,29.89
2023-07-12T14:22:55.876Z,29.21
2023-07-12T14:23:57.479Z,29.52
2023-07-12T14:24:59.558Z,29.93
2023-07-12T14:26:01.080Z,29.95
2023-07-12T14:27:02.465Z,30.41
2023-07-12T14:28:10.280Z,30.24
2023-07-12T14:30:47.891Z,30.56
2023-07-12T14:31:39.920Z,30.08
2023-07-12T14:32:45.824Z,29.40
2023-07-12T14:33:48.326Z,28.72
2023-07-12T14:34:51.014Z,29.04
2023-07-12T14:35:52.432Z,29.13
2023-07-12T14:36:53.790Z,29.16
2023-07-12T14:37:56.108Z,29.23
2023-07-12T14:38:57.789Z,29.49
2023-07-12T14:39:59.475Z,29.69
2023-07-12T14:41:01.032Z,29.87
2023-07-12T14:42:02.490Z,29.89
2023-07-12T14:43:05.056Z,30.18
2023-07-12T14:44:17.118Z,29.66
2023-07-12T14:45:22.468Z,29.92
2023-07-12T14:46:24.127Z,29.69
2023-07-12T14:47:26.009Z,29.71
2023-07-12T14:48:27.402Z,29.38
2023-07-12T14:49:28.858Z,29.23
2023-07-12T14:50:30.296Z,29.55
2023-07-12T14:51:32.879Z,29.76
2023-07-12T14:52:34.750Z,29.79
2023-07-12T14:53:36.826Z,29.92
2023-07-12T14:54:49.119Z,30.12
2023-07-12T14:55:58.991Z,29.92
2023-07-12T14:57:17.269Z,29.69
2023-07-12T14:58:22.004Z,29.86
2023-07-12T14:59:23.593Z,29.71
2023-07-12T15:00:25.093Z,30.05
2023-07-12T15:01:30.209Z,29.88
2023-07-12T15:02:37.844Z,29.68
2023-07-12T15:03:41.272Z,29.78
2023-07-12T15:04:45.265Z,29.54
2023-07-12T15:05:49.374Z,29.72
2023-07-12T15:06:52.359Z,29.74
2023-07-12T15:07:53.823Z,29.27
2023-07-12T15:08:58.136Z,29.54
2023-07-12T15:10:18.570Z,29.44
2023-07-12T15:11:23.948Z,29.48
2023-07-12T15:12:31.154Z,29.75
2023-07-12T15:13:32.708Z,29.87
2023-07-12T15:14:34.200Z,29.97
2023-07-12T15:15:35.776Z,30.02
2023-07-12T15:16:37.159Z,30.00
2023-07-12T15:17:39.735Z,30.10
2023-07-12T15:18:41.457Z,29.71
2023-07-12T15:19:42.903Z,28.74
2023-07-12T15:20:47.067Z,28.86
2023-07-12T15:21:48.546Z,29.05
2023-07-12T15:22:50.334Z,28.88
2023-07-12T15:23:52.738Z,28.43
2023-07-12T15:24:54.272Z,28.58
2023-07-12T15:25:55.632Z,27.97
2023-07-12T15:26:57.031Z,27.97
2023-07-12T15:27:58.752Z,27.97
2023-07-12T15:29:00.172Z,27.43
2023-07-12T15:30:01.906Z,27.27
2023-07-12T15:31:03.404Z,27.50
2023-07-12T15:32:11.410Z,27.46
2023-07-12T15:33:26.244Z,27.42
2023-07-12T15:34:28.841Z,27.53
2023-07-12T15:35:34.261Z,27.36
2023-07-12T15:36:35.739Z,27.14
2023-07-12T15:37:37.151Z,27.25
2023-07-12T15:38:38.581Z,27.17
2023-07-12T15:39:40.056Z,27.03
2023-07-12T15:40:57.907Z,27.55
2023-07-12T15:41:59.532Z,27.88
2023-07-12T15:43:00.951Z,27.89
2023-07-12T15:44:02.455Z,27.35
2023-07-12T15:45:04.665Z,27.28
2023-07-12T15:46:10.573Z,27.29
2023-07-12T15:47:14.377Z,27.29
2023-07-12T15:48:18.894Z,27.11
2023-07-12T15:49:20.603Z,27.07
2023-07-12T15:50:22.000Z,27.32
2023-07-12T15:51:46.801Z,27.24
2023-07-12T15:52:48.936Z,26.99
2023-07-12T15:53:52.886Z,26.86
2023-07-12T15:54:54.527Z,26.90
2023-07-12T15:55:55.901Z,27.07
2023-07-12T15:56:57.379Z,27.22
2023-07-12T15:57:59.035Z,27.07
2023-07-12T15:59:00.543Z,27.24
2023-07-12T16:00:02.680Z,26.98
2023-07-12T16:01:05.988Z,27.09
2023-07-12T16:02:16.840Z,27.29
2023-07-12T16:03:29.951Z,27.06
2023-07-12T16:04:32.596Z,26.96
2023-07-12T16:05:34.020Z,26.72
2023-07-12T16:06:36.442Z,26.74
2023-07-12T16:07:38.154Z,26.72
2023-07-12T16:08:40.082Z,26.49
2023-07-12T16:09:42.732Z,26.41
2023-07-12T16:10:45.978Z,26.78
2023-07-12T16:11:48.350Z,26.88
2023-07-12T16:12:50.390Z,26.97
2023-07-12T16:14:00.465Z,26.78
2023-07-12T16:15:02.992Z,26.99
2023-07-12T16:16:04.648Z,26.94
2023-07-12T16:17:06.327Z,26.69
2023-07-12T16:18:20.711Z,26.66
2023-07-12T16:19:23.505Z,26.88
2023-07-12T16:20:25.370Z,26.79
2023-07-12T16:21:29.301Z,26.99
2023-07-12T16:22:32.027Z,27.15
2023-07-12T16:23:36.690Z,27.14
2023-07-12T16:24:38.143Z,27.11
2023-07-12T16:25:39.562Z,27.17
2023-07-12T16:26:41.130Z,27.07
2023-07-12T16:27:45.374Z,27.30
2023-07-12T16:28:47.130Z,27.34
2023-07-12T16:29:49.332Z,26.86
2023-07-12T16:30:50.815Z,26.85
2023-07-12T16:31:54.005Z,26.56
2023-07-12T16:32:56.034Z,26.39
2023-07-12T16:33:58.754Z,26.29
2023-07-12T16:35:00.771Z,26.40
2023-07-12T16:36:02.159Z,26.42
2023-07-12T16:37:03.698Z,26.20
2023-07-12T16:38:16.300Z,26.24
2023-07-12T16:39:19.251Z,26.37
2023-07-12T16:40:21.131Z,26.34
2023-07-12T16:41:28.521Z,26.40
2023-07-12T16:42:30.248Z,26.42
2023-07-12T16:43:32.048Z,26.26
2023-07-12T16:44:33.442Z,26.32
2023-07-12T16:45:34.836Z,26.28
2023-07-12T16:46:36.293Z,26.25
2023-07-12T16:47:37.806Z,25.87
2023-07-12T16:48:39.710Z,25.95
2023-07-12T16:49:41.084Z,25.99
2023-07-12T16:50:45.991Z,25.98
2023-07-12T16:51:52.289Z,25.97
2023-07-12T16:52:53.670Z,25.63
2023-07-12T16:53:55.489Z,25.53
2023-07-12T16:54:58.241Z,25.69
2023-07-12T16:56:04.728Z,25.85
2023-07-12T16:57:23.542Z,25.79
2023-07-12T16:58:26.202Z,25.79
2023-07-12T16:59:29.436Z,25.70
2023-07-12T17:00:31.818Z,25.61
2023-07-12T17:01:35.702Z,25.63
2023-07-12T17:02:37.635Z,25.55
2023-07-12T17:03:44.921Z,25.54
2023-07-12T17:04:46.454Z,25.39
2023-07-12T17:05:48.945Z,25.47
2023-07-12T17:06:50.415Z,25.34
2023-07-12T17:07:51.943Z,25.59
2023-07-12T17:08:54.191Z,25.69
2023-07-12T17:09:56.272Z,25.43
2023-07-12T17:10:59.408Z,25.72
2023-07-12T17:12:00.987Z,25.63
2023-07-12T17:13:02.753Z,25.51
2023-07-12T17:14:04.156Z,25.58
2023-07-12T17:15:10.302Z,25.43
2023-07-12T17:16:13.644Z,25.40
2023-07-12T17:17:15.098Z,25.37
2023-07-12T17:18:17.782Z,25.43
2023-07-12T17:19:21.190Z,25.22
2023-07-12T17:20:26.185Z,25.41
2023-07-12T17:21:28.250Z,25.52
2023-07-12T17:22:29.796Z,25.66
2023-07-12T17:23:35.194Z,25.43
2023-07-12T17:24:36.779Z,25.43
2023-07-12T17:25:38.733Z,25.21
2023-07-12T17:26:40.373Z,25.02
2023-07-12T17:27:41.802Z,24.69
2023-07-12T17:28:45.528Z,24.63
2023-07-12T17:29:48.417Z,24.70
2023-07-12T17:30:56.231Z,24.87
2023-07-12T17:31:57.818Z,24.91
2023-07-12T17:32:59.517Z,24.85
2023-07-12T17:34:01.057Z,24.47
2023-07-12T17:35:02.574Z,24.34
2023-07-12T17:36:06.412Z,24.23
2023-07-12T17:37:17.527Z,24.28
2023-07-12T17:38:20.716Z,24.23
2023-07-12T17:39:23.724Z,24.25
2023-07-12T17:40:25.363Z,24.23
2023-07-12T17:41:29.028Z,24.39
2023-07-12T17:42:30.651Z,24.44
2023-07-12T17:43:32.638Z,24.58
2023-07-12T17:47:02.365Z,24.34
2023-07-12T17:50:43.232Z,23.99
2023-07-12T17:54:30.456Z,23.52
2023-07-12T17:58:00.874Z,23.58
2023-07-12T18:01:33.553Z,23.64
